createdAt,value
2022-09-12T00:04:01.964Z,17.11
2022-09-12T00:08:03.423Z,17.40
2022-09-12T00:12:05.267Z,17.50
2022-09-12T00:16:06.960Z,17.38
2022-09-12T00:20:09.359Z,17.18
2022-09-12T00:24:11.441Z,17.09
2022-09-12T00:28:14.660Z,16.03
2022-09-12T00:32:16.068Z,16.86
2022-09-12T00:36:20.181Z,17.04
2022-09-12T00:40:21.692Z,17.05
2022-09-12T00:44:23.076Z,17.03
2022-09-12T00:48:39.080Z,17.10
2022-09-12T00:52:46.589Z,17.05
2022-09-12T00:56:50.573Z,17.08
2022-09-12T01:00:52.513Z,17.00
2022-09-12T01:04:54.200Z,16.98
2022-09-12T01:08:56.751Z,16.97
2022-09-12T01:12:59.249Z,17.01
2022-09-12T01:17:01.049Z,16.92
2022-09-12T01:21:14.638Z,16.56
2022-09-12T01:25:47.951Z,16.85
2022-09-12T01:30:21.836Z,16.97
2022-09-12T01:34:33.945Z,16.51
2022-09-12T01:38:46.924Z,16.33
2022-09-12T01:42:56.348Z,16.44
2022-09-12T01:47:19.059Z,16.52
2022-09-12T01:51:29.731Z,16.59
2022-09-12T01:55:44.203Z,16.60
2022-09-12T01:59:50.371Z,16.78
2022-09-12T02:03:57.615Z,16.67
2022-09-12T02:08:22.124Z,16.78
2022-09-12T02:12:29.727Z,16.79
2022-09-12T02:16:54.801Z,16.79
2022-09-12T02:20:56.758Z,16.64
2022-09-12T02:25:00.816Z,16.45
2022-09-12T02:29:04.298Z,16.40
2022-09-12T02:33:19.650Z,16.35
2022-09-12T02:37:30.944Z,16.14
2022-09-12T02:41:32.553Z,16.12
2022-09-12T02:45:35.733Z,16.19
2022-09-12T02:49:37.296Z,16.19
2022-09-12T02:53:39.504Z,16.25
2022-09-12T02:57:41.014Z,15.66
2022-09-12T03:02:09.742Z,15.84
2022-09-12T03:06:37.596Z,15.92
2022-09-12T03:11:00.803Z,16.03
2022-09-12T03:15:40.092Z,15.90
2022-09-12T03:20:01.889Z,15.83
2022-09-12T03:24:21.095Z,15.77
2022-09-12T03:28:23.527Z,15.88
2022-09-12T03:32:48.831Z,15.67
2022-09-12T03:36:50.534Z,15.60
2022-09-12T03:40:54.817Z,15.71
2022-09-12T03:44:56.488Z,15.20
2022-09-12T03:48:58.023Z,15.05
2022-09-12T03:53:00.120Z,15.06
2022-09-12T03:57:01.541Z,15.39
2022-09-12T04:01:15.193Z,15.26
2022-09-12T04:05:16.633Z,15.35
2022-09-12T04:09:18.811Z,15.54
2022-09-12T04:13:20.270Z,15.51
2022-09-12T04:17:21.751Z,15.72
2022-09-12T04:21:23.258Z,15.90
2022-09-12T04:25:24.906Z,16.05
2022-09-12T04:29:26.400Z,16.12
2022-09-12T04:33:27.804Z,16.03
2022-09-12T04:37:29.220Z,15.37
2022-09-12T04:41:34.010Z,14.28
2022-09-12T04:45:35.489Z,15.03
2022-09-12T04:49:37.676Z,14.64
2022-09-12T04:53:39.824Z,14.36
2022-09-12T04:57:41.238Z,15.14
2022-09-12T05:01:43.537Z,14.85
2022-09-12T05:05:44.979Z,15.26
2022-09-12T05:09:46.483Z,15.33
2022-09-12T05:13:47.919Z,15.58
2022-09-12T05:17:49.359Z,15.60
2022-09-12T05:21:50.761Z,15.45
2022-09-12T05:25:53.407Z,15.79
2022-09-12T05:29:55.216Z,15.88
2022-09-12T05:33:57.244Z,15.79
2022-09-12T05:37:58.757Z,15.58
2022-09-12T05:42:00.262Z,16.50
2022-09-12T05:46:08.717Z,16.63
2022-09-12T05:50:11.162Z,16.86
2022-09-12T05:54:15.998Z,17.18
2022-09-12T05:58:17.396Z,17.31
2022-09-12T06:02:18.851Z,17.49
2022-09-12T06:06:22.562Z,17.61
2022-09-12T06:10:26.272Z,18.14
2022-09-12T06:14:27.762Z,18.73
2022-09-12T06:18:29.169Z,18.56
2022-09-12T06:22:31.043Z,18.03
2022-09-12T06:26:33.196Z,18.25
2022-09-12T06:30:34.734Z,19.03
2022-09-12T06:34:36.493Z,19.70
2022-09-12T06:38:38.680Z,20.13
2022-09-12T06:42:40.160Z,20.41
2022-09-12T06:46:42.090Z,20.39
2022-09-12T06:50:43.821Z,20.08
2022-09-12T06:54:46.165Z,21.00
2022-09-12T06:58:49.398Z,21.00
2022-09-12T07:02:56.349Z,21.23
2022-09-12T07:06:57.803Z,21.03
2022-09-12T07:11:07.957Z,20.70
2022-09-12T07:15:10.508Z,21.23
2022-09-12T07:19:12.087Z,21.11
2022-09-12T07:23:13.541Z,20.87
2022-09-12T07:27:14.952Z,21.14
2022-09-12T07:31:18.242Z,21.59
2022-09-12T07:35:20.924Z,21.62
2022-09-12T07:39:22.345Z,21.75
2022-09-12T07:43:23.763Z,21.56
2022-09-12T07:47:25.324Z,21.35
2022-09-12T07:51:28.951Z,21.13
2022-09-12T07:55:30.974Z,21.06
2022-09-12T07:59:51.313Z,21.33
2022-09-12T08:03:56.811Z,21.46
2022-09-12T08:07:58.741Z,21.79
2022-09-12T08:12:00.323Z,21.62
2022-09-12T08:16:06.007Z,22.13
2022-09-12T08:20:07.713Z,22.61
2022-09-12T08:24:12.125Z,22.14
2022-09-12T08:28:13.549Z,21.93
2022-09-12T08:32:15.066Z,22.23
2022-09-12T08:36:21.610Z,22.01
2022-09-12T08:40:23.004Z,22.27
2022-09-12T08:45:02.886Z,22.45
2022-09-12T08:49:09.036Z,22.23
2022-09-12T08:53:16.254Z,22.42
2022-09-12T08:57:18.456Z,22.24
2022-09-12T09:01:35.542Z,22.54
2022-09-12T09:06:01.463Z,22.65
2022-09-12T09:10:13.943Z,21.77
2022-09-12T09:14:43.749Z,21.60
2022-09-12T09:18:48.331Z,22.10
2022-09-12T09:22:57.655Z,22.11
2022-09-12T09:27:14.349Z,22.26
2022-09-12T09:31:30.666Z,22.88
2022-09-12T09:35:43.460Z,23.02
2022-09-12T09:40:09.883Z,23.11
2022-09-12T09:44:11.642Z,22.86
2022-09-12T09:48:21.679Z,22.03
2022-09-12T09:52:29.451Z,21.17
2022-09-12T09:56:37.266Z,22.38
2022-09-12T10:00:39.303Z,22.36
2022-09-12T10:04:52.580Z,22.80
2022-09-12T10:09:07.122Z,22.77
2022-09-12T10:13:18.576Z,22.89
2022-09-12T10:17:33.870Z,23.41
2022-09-12T10:21:47.645Z,23.15
2022-09-12T10:26:00.718Z,23.40
2022-09-12T10:30:14.456Z,23.73
2022-09-12T10:34:30.148Z,23.37
2022-09-12T10:38:32.983Z,23.63
2022-09-12T10:42:54.179Z,23.82
2022-09-12T10:46:56.658Z,24.19
2022-09-12T10:51:00.321Z,23.94
2022-09-12T10:55:01.774Z,24.66
2022-09-12T10:59:20.269Z,24.16
2022-09-12T11:03:53.949Z,23.80
2022-09-12T11:08:07.037Z,23.50
2022-09-12T11:12:34.817Z,24.46
2022-09-12T11:16:59.194Z,24.26
2022-09-12T11:21:45.282Z,23.71
2022-09-12T11:26:02.880Z,24.37
2022-09-12T11:30:14.859Z,24.45
2022-09-12T11:34:30.435Z,24.64
2022-09-12T11:38:45.211Z,24.43
2022-09-12T11:42:51.815Z,24.11
2022-09-12T11:46:53.253Z,24.16
2022-09-12T11:50:55.175Z,24.04
2022-09-12T11:55:03.739Z,24.28
2022-09-12T11:59:28.496Z,23.77
2022-09-12T12:03:46.022Z,23.42
2022-09-12T12:07:59.100Z,23.39
2022-09-12T12:12:06.630Z,23.99
2022-09-12T12:16:15.063Z,23.59
2022-09-12T12:20:17.878Z,23.34
2022-09-12T12:24:22.349Z,23.64
2022-09-12T12:28:42.046Z,23.13
2022-09-12T12:32:43.844Z,23.87
2022-09-12T12:36:46.277Z,24.15
2022-09-12T12:40:47.763Z,23.84
2022-09-12T12:44:51.406Z,23.89
2022-09-12T12:49:03.681Z,23.75
2022-09-12T12:53:15.985Z,23.35
2022-09-12T12:57:23.225Z,23.77
2022-09-12T13:01:25.184Z,23.54
2022-09-12T13:05:29.225Z,23.55
2022-09-12T13:09:34.143Z,22.94
2022-09-12T13:13:57.845Z,23.05
2022-09-12T13:18:03.041Z,23.20
2022-09-12T13:22:05.767Z,22.92
2022-09-12T13:26:25.787Z,22.52
2022-09-12T13:30:29.201Z,22.61
2022-09-12T13:34:37.763Z,22.48
2022-09-12T13:38:50.265Z,22.69
2022-09-12T13:43:23.316Z,23.40
2022-09-12T13:47:33.341Z,23.43
2022-09-12T13:51:34.862Z,23.46
2022-09-12T13:55:49.542Z,22.90
2022-09-12T13:59:55.734Z,22.90
2022-09-12T14:04:15.951Z,23.03
2022-09-12T14:08:17.852Z,23.45
2022-09-12T14:12:34.824Z,23.68
2022-09-12T14:16:39.985Z,23.95
2022-09-12T14:20:41.898Z,23.28
2022-09-12T14:24:51.560Z,23.67
2022-09-12T14:28:53.327Z,23.69
2022-09-12T14:33:10.078Z,23.87
2022-09-12T14:37:11.958Z,24.07
2022-09-12T14:41:21.473Z,23.62
2022-09-12T14:45:30.273Z,23.50
2022-09-12T14:49:36.653Z,23.31
2022-09-12T14:53:38.316Z,23.19
2022-09-12T14:57:40.814Z,23.51
2022-09-12T15:01:42.347Z,23.48
2022-09-12T15:05:50.424Z,23.41
2022-09-12T15:09:53.066Z,23.12
2022-09-12T15:13:54.602Z,22.37
2022-09-12T15:17:56.100Z,22.86
2022-09-12T15:21:57.755Z,22.20
2022-09-12T15:25:59.976Z,23.36
2022-09-12T15:30:01.559Z,23.64
2022-09-12T15:34:03.366Z,22.93
2022-09-12T15:38:04.949Z,23.08
2022-09-12T15:42:06.586Z,22.53
2022-09-12T15:46:11.627Z,23.13
2022-09-12T15:50:13.378Z,22.31
2022-09-12T15:54:17.147Z,22.61
2022-09-12T15:58:18.616Z,22.71
2022-09-12T16:02:20.127Z,22.66
2022-09-12T16:06:22.263Z,23.18
2022-09-12T16:10:27.441Z,22.89
2022-09-12T16:14:28.924Z,23.41
2022-09-12T16:22:32.162Z,23.10
2022-09-12T16:26:34.023Z,23.06
2022-09-12T16:30:36.239Z,23.04
2022-09-12T16:34:37.658Z,23.09
2022-09-12T16:38:50.420Z,22.82
2022-09-12T16:42:51.832Z,22.96
2022-09-12T16:46:53.841Z,22.56
2022-09-12T16:51:01.432Z,22.65
2022-09-12T16:55:02.979Z,22.33
2022-09-12T16:59:05.251Z,22.44
2022-09-12T17:03:06.649Z,22.50
2022-09-12T17:07:08.998Z,22.32
2022-09-12T17:11:14.016Z,22.25
2022-09-12T17:15:16.190Z,22.01
2022-09-12T17:19:20.755Z,21.93
2022-09-12T17:23:22.208Z,21.86
2022-09-12T17:27:23.613Z,21.98
2022-09-12T17:31:25.373Z,21.85
2022-09-12T17:35:27.399Z,21.68
2022-09-12T17:39:28.918Z,21.67
2022-09-12T17:43:31.511Z,21.65
2022-09-12T17:47:32.955Z,21.58
2022-09-12T17:51:35.437Z,21.66
2022-09-12T17:55:37.479Z,21.57
2022-09-12T17:59:38.864Z,21.44
2022-09-12T18:03:40.298Z,21.48
2022-09-12T18:07:44.199Z,21.48
2022-09-12T18:11:46.389Z,21.27
2022-09-12T18:15:47.864Z,21.48
2022-09-12T18:19:53.860Z,21.43
2022-09-12T18:23:56.911Z,21.33
2022-09-12T18:27:58.333Z,21.09
2022-09-12T18:31:59.778Z,20.85
2022-09-12T18:36:05.525Z,21.00
2022-09-12T18:40:07.314Z,21.16
2022-09-12T18:44:11.539Z,20.65
2022-09-12T18:48:13.997Z,21.09
2022-09-12T18:52:16.665Z,20.64
2022-09-12T18:56:20.559Z,20.74
2022-09-12T19:00:22.120Z,20.74
2022-09-12T19:04:23.753Z,20.60
2022-09-12T19:08:25.143Z,20.34
2022-09-12T19:12:26.747Z,20.25
2022-09-12T19:16:28.736Z,20.21
2022-09-12T19:20:30.160Z,20.21
2022-09-12T19:24:31.603Z,20.28
2022-09-12T19:28:33.652Z,20.12
2022-09-12T19:32:35.075Z,20.00
2022-09-12T19:36:46.336Z,19.91
2022-09-12T19:41:02.862Z,20.10
2022-09-12T19:45:04.616Z,20.05
2022-09-12T19:49:06.183Z,19.74
2022-09-12T19:53:07.574Z,19.79
2022-09-12T19:57:08.977Z,20.07
2022-09-12T20:01:11.684Z,20.03
2022-09-12T20:05:13.320Z,20.00
2022-09-12T20:09:14.836Z,20.09
2022-09-12T20:13:16.324Z,19.88
2022-09-12T20:17:17.909Z,19.83
2022-09-12T20:21:21.958Z,19.86
2022-09-12T20:25:23.407Z,19.95
2022-09-12T20:29:25.070Z,19.90
2022-09-12T20:33:26.483Z,19.72
2022-09-12T20:37:30.021Z,19.62
2022-09-12T20:41:35.558Z,19.98
2022-09-12T20:45:41.326Z,20.10
2022-09-12T20:49:42.719Z,19.96
2022-09-12T20:53:44.258Z,20.06
2022-09-12T20:57:45.661Z,19.84
2022-09-12T21:01:47.365Z,19.62
2022-09-12T21:05:48.839Z,20.06
2022-09-12T21:09:51.062Z,19.83
2022-09-12T21:13:53.548Z,19.82
2022-09-12T21:17:55.055Z,19.97
2022-09-12T21:21:56.466Z,19.93
2022-09-12T21:26:01.721Z,19.97
2022-09-12T21:30:05.183Z,20.25
2022-09-12T21:34:06.752Z,20.17
2022-09-12T21:38:08.202Z,19.86
2022-09-12T21:42:10.013Z,20.16
2022-09-12T21:46:12.025Z,20.14
2022-09-12T21:50:13.610Z,19.56
2022-09-12T21:54:15.046Z,20.16
2022-09-12T21:58:16.914Z,20.08
2022-09-12T22:02:19.481Z,19.91
2022-09-12T22:06:22.620Z,19.89
2022-09-12T22:10:25.011Z,19.93
2022-09-12T22:14:26.589Z,19.80
2022-09-12T22:18:29.258Z,19.52
2022-09-12T22:22:49.116Z,19.93
2022-09-12T22:26:50.503Z,19.94
2022-09-12T22:30:54.373Z,19.76
2022-09-12T22:34:57.280Z,19.84
2022-09-12T22:38:59.505Z,19.49
2022-09-12T22:43:01.223Z,19.76
2022-09-12T22:47:02.872Z,19.93
2022-09-12T22:51:05.193Z,19.93
2022-09-12T22:55:08.785Z,19.87
2022-09-12T22:59:10.307Z,19.69
2022-09-12T23:03:11.982Z,19.70
2022-09-12T23:07:13.479Z,20.02
2022-09-12T23:11:16.710Z,19.82
2022-09-12T23:15:18.141Z,20.00
2022-09-12T23:19:19.700Z,19.64
2022-09-12T23:23:21.106Z,19.53
2022-09-12T23:27:23.105Z,19.49
2022-09-12T23:31:29.703Z,19.53
2022-09-12T23:35:31.197Z,19.57
2022-09-12T23:39:32.630Z,19.82
2022-09-12T23:43:34.549Z,19.64
2022-09-12T23:47:36.074Z,19.65
2022-09-12T23:51:37.485Z,19.97
2022-09-12T23:55:39.161Z,19.72
2022-09-12T23:59:40.565Z,19.75
